Time;durP1;ratioP1;P1;durP2;ratioP2;P2;SDS_P1;SDS_P2;PMS_P1;PMS_P2;Temp;Humidity;BMP_temperature;BMP_pressure;BME280_temperature;BME280_humidity;BME280_pressure;Samples;Min_cycle;Max_cycle;Signal;HPM_P1;HPM_P2
2023/04/19 00:01:13;;;;;;;59.72;56.38;;;;;;;6.73;83.16;98975.31;5033123;28;20116;-78
2023/04/19 00:03:38;;;;;;;59.00;55.88;;;;;;;6.84;83.05;98974.72;5016599;28;20486;-78
2023/04/19 00:06:03;;;;;;;58.15;54.95;;;;;;;6.40;82.95;98971.66;4997287;28;20116;-78
2023/04/19 00:08:29;;;;;;;56.30;53.20;;;;;;;6.46;82.05;98978.91;5023327;28;20033;-78
2023/04/19 00:10:54;;;;;;;61.33;57.78;;;;;;;6.40;84.05;98965.47;5000592;28;20037;-77
2023/04/19 00:13:20;;;;;;;64.85;61.08;;;;;;;6.39;84.55;98969.19;5019620;28;20021;-77
2023/04/19 00:15:46;;;;;;;67.75;63.90;;;;;;;6.53;84.31;98966.38;5032710;28;20045;-78
2023/04/19 00:18:11;;;;;;;68.90;65.00;;;;;;;6.62;84.41;98967.03;5032464;28;20053;-78
2023/04/19 00:20:37;;;;;;;66.22;62.42;;;;;;;6.65;84.79;98954.06;5017981;28;20087;-78
2023/04/19 00:23:03;;;;;;;66.05;62.10;;;;;;;6.92;84.69;98960.31;5025654;28;20029;-77
2023/04/19 00:25:30;;;;;;;63.75;60.03;;;;;;;6.93;84.51;98957.44;5032517;28;20080;-77
2023/04/19 00:27:56;;;;;;;65.50;61.55;;;;;;;6.76;85.14;98944.63;5016081;28;20075;-77
2023/04/19 00:30:21;;;;;;;67.63;63.63;;;;;;;7.08;84.81;98945.72;5015788;28;20041;-77
2023/04/19 00:32:46;;;;;;;64.05;60.30;;;;;;;7.07;85.60;98949.44;5033128;28;20022;-77
2023/04/19 00:35:13;;;;;;;63.50;59.67;;;;;;;7.17;84.29;98948.00;5015503;28;20487;-75
2023/04/19 00:37:38;;;;;;;61.17;57.75;;;;;;;7.14;82.39;98948.41;5015719;28;20098;-75
2023/04/19 00:40:04;;;;;;;61.55;57.85;;;;;;;6.77;84.43;98941.75;5026841;28;20400;-75
2023/04/19 00:42:30;;;;;;;63.80;60.00;;;;;;;6.86;84.29;98945.09;5042477;28;20024;-75
2023/04/19 00:44:55;;;;;;;63.53;59.83;;;;;;;6.58;84.14;98934.47;5031817;28;20024;-76
2023/04/19 00:47:21;;;;;;;65.95;62.10;;;;;;;6.28;85.76;98940.34;5024849;28;20029;-77
2023/04/19 00:49:46;;;;;;;66.43;62.55;;;;;;;6.24;84.60;98930.03;5032772;28;20398;-76
2023/04/19 00:52:11;;;;;;;63.53;59.97;;;;;;;6.48;84.12;98939.41;5025132;28;20394;-77
2023/04/19 00:54:37;;;;;;;64.57;60.83;;;;;;;6.36;83.53;98943.66;5034936;28;20025;-77
2023/04/19 00:57:03;;;;;;;66.07;62.20;;;;;;;6.42;84.63;98945.53;5035378;28;20486;-76
2023/04/19 00:59:28;;;;;;;62.90;59.30;;;;;;;6.42;83.44;98937.50;5031981;28;20045;-76
2023/04/19 01:01:54;;;;;;;59.17;55.58;;;;;;;6.10;83.29;98932.84;5014804;28;20029;-76
2023/04/19 01:04:21;;;;;;;59.88;56.47;;;;;;;6.19;84.43;98942.34;5030711;28;20037;-76
2023/04/19 01:06:47;;;;;;;62.92;59.03;;;;;;;6.22;85.27;98936.59;5051252;28;20044;-76
2023/04/19 01:09:12;;;;;;;67.65;63.55;;;;;;;6.41;85.69;98935.88;5034914;28;20486;-77
2023/04/19 01:11:40;;;;;;;75.43;70.82;;;;;;;6.34;86.96;98935.00;5035333;28;20032;-77
2023/04/19 01:14:05;;;;;;;71.88;67.50;;;;;;;6.53;86.27;98926.25;5001770;28;20041;-77
2023/04/19 01:16:32;;;;;;;70.53;66.13;;;;;;;6.68;88.48;98926.91;5015940;28;20315;-77
2023/04/19 01:18:57;;;;;;;73.03;68.40;;;;;;;6.59;87.56;98919.25;5006413;28;20061;-77
2023/04/19 01:21:22;;;;;;;72.32;67.65;;;;;;;6.85;87.77;98917.47;5019163;28;20117;-77
2023/04/19 01:23:48;;;;;;;72.32;67.82;;;;;;;7.07;87.16;98925.34;5015342;28;20033;-77
2023/04/19 01:26:15;;;;;;;70.80;66.28;;;;;;;7.24;87.40;98923.91;5033186;28;20108;-78
2023/04/19 01:28:40;;;;;;;68.97;64.55;;;;;;;7.09;87.07;98909.88;5034230;28;20034;-77
2023/04/19 01:31:06;;;;;;;70.50;65.80;;;;;;;7.25;86.70;98915.69;5020724;28;20033;-78
2023/04/19 01:33:31;;;;;;;69.85;65.40;;;;;;;7.35;86.85;98915.28;5022236;28;20346;-78
2023/04/19 01:35:56;;;;;;;74.60;69.63;;;;;;;7.39;87.21;98913.81;5025127;28;20060;-77
2023/04/19 01:38:22;;;;;;;69.85;65.15;;;;;;;7.50;86.91;98913.19;5001487;28;20025;-77
2023/04/19 01:40:47;;;;;;;71.60;66.57;;;;;;;7.38;87.28;98909.47;5012925;28;20029;-78
2023/04/19 01:43:15;;;;;;;72.20;67.28;;;;;;;7.47;87.74;98905.56;5034978;28;20123;-77
2023/04/19 01:45:40;;;;;;;71.63;66.85;;;;;;;7.52;87.44;98901.22;5041142;28;20053;-77
2023/04/19 01:48:06;;;;;;;71.95;67.22;;;;;;;7.47;86.88;98900.19;5017967;28;20060;-77
2023/04/19 01:50:33;;;;;;;73.35;68.45;;;;;;;7.43;87.89;98904.31;5011520;28;20475;-77
2023/04/19 01:52:58;;;;;;;72.72;67.97;;;;;;;7.42;87.27;98892.78;5010880;28;20036;-77
2023/04/19 01:55:25;;;;;;;70.53;65.85;;;;;;;7.53;86.86;98894.03;5014585;28;20460;-78
2023/04/19 01:57:54;;;;;;;69.88;65.03;;;;;;;7.61;86.36;98904.50;5015663;28;20038;-79
2023/04/19 02:00:22;;;;;;;73.35;68.57;;;;;;;7.50;86.86;98891.75;5025565;28;20025;-78
2023/04/19 02:02:59;;;;;;;73.85;68.90;;;;;;;7.39;86.80;98874.47;5034457;28;20198;-78
2023/04/19 02:05:26;;;;;;;74.25;69.13;;;;;;;7.50;87.41;98883.72;5027757;28;20040;-78
2023/04/19 02:07:52;;;;;;;75.78;70.70;;;;;;;7.49;87.33;98887.44;5033798;28;20479;-78
2023/04/19 02:10:18;;;;;;;77.90;72.78;;;;;;;7.52;87.49;98879.78;5017531;28;20041;-78
2023/04/19 02:12:44;;;;;;;84.75;79.15;;;;;;;7.62;87.84;98884.72;5033910;28;20055;-78
2023/04/19 02:15:09;;;;;;;78.63;73.55;;;;;;;7.57;87.47;98868.44;5033940;28;20040;-77
2023/04/19 02:17:35;;;;;;;77.68;72.38;;;;;;;7.71;87.07;98886.16;5013756;28;20026;-77
2023/04/19 02:20:00;;;;;;;76.80;71.53;;;;;;;7.70;87.15;98884.53;5012003;28;20053;-78
2023/04/19 02:22:26;;;;;;;78.45;73.00;;;;;;;7.79;86.95;98871.72;5001690;28;20442;-78
2023/04/19 02:24:51;;;;;;;77.53;72.07;;;;;;;7.78;87.23;98876.25;5016777;28;20029;-78
2023/04/19 02:27:17;;;;;;;76.93;71.53;;;;;;;7.80;86.99;98879.53;5006777;28;20025;-79
2023/04/19 02:29:43;;;;;;;76.38;71.15;;;;;;;7.82;86.98;98866.75;5041465;28;20395;-79
2023/04/19 02:32:08;;;;;;;80.03;74.60;;;;;;;7.72;87.75;98869.06;5039224;28;20070;-78
2023/04/19 02:34:37;;;;;;;79.40;74.22;;;;;;;7.85;87.39;98871.69;5055382;28;20045;-78
2023/04/19 02:37:06;;;;;;;80.00;74.55;;;;;;;7.87;87.29;98869.63;5038939;28;20025;-78
2023/04/19 02:39:33;;;;;;;79.68;74.22;;;;;;;8.01;87.21;98860.50;5055671;28;20044;-79
2023/04/19 02:41:58;;;;;;;79.32;73.95;;;;;;;7.89;87.30;98867.53;5038843;28;20397;-79
2023/04/19 02:44:26;;;;;;;78.47;73.05;;;;;;;7.89;88.63;98854.13;5036385;28;20036;-78
2023/04/19 02:46:52;;;;;;;80.70;75.45;;;;;;;7.96;87.62;98851.47;5013911;28;20014;-78
2023/04/19 02:49:19;;;;;;;78.90;73.60;;;;;;;7.98;87.57;98852.88;4998102;28;20057;-78
2023/04/19 02:51:48;;;;;;;79.57;74.18;;;;;;;7.91;87.90;98849.38;5006475;28;20440;-78
2023/04/19 02:54:13;;;;;;;80.32;74.40;;;;;;;7.91;88.56;98852.06;5038786;28;20036;-78
2023/04/19 02:56:41;;;;;;;79.57;74.10;;;;;;;7.79;89.24;98845.72;5025828;28;20026;-79
2023/04/19 02:59:06;;;;;;;81.75;75.82;;;;;;;8.02;88.78;98848.75;5034650;28;20096;-78
2023/04/19 03:01:32;;;;;;;80.88;75.15;;;;;;;8.06;88.26;98847.28;5023428;28;20032;-78
2023/04/19 03:04:01;;;;;;;85.00;79.00;;;;;;;7.82;89.39;98839.13;5044793;28;20393;-78
2023/04/19 03:06:26;;;;;;;80.57;75.07;;;;;;;8.05;89.52;98842.94;5043087;28;20021;-78
2023/04/19 03:08:52;;;;;;;82.03;76.10;;;;;;;8.12;89.21;98830.31;5024788;28;20036;-77
2023/04/19 03:11:18;;;;;;;83.55;77.50;;;;;;;7.85;89.65;98822.59;5036955;28;20029;-76
2023/04/19 03:13:43;;;;;;;81.55;75.85;;;;;;;7.94;89.28;98826.69;5036737;28;20036;-77
2023/04/19 03:16:11;;;;;;;84.38;78.68;;;;;;;7.97;89.29;98808.31;5020988;28;20070;-77
2023/04/19 03:18:36;;;;;;;83.68;77.50;;;;;;;7.97;89.37;98811.00;5023563;28;20033;-77
2023/04/19 03:21:03;;;;;;;81.60;75.47;;;;;;;7.88;89.73;98814.13;5017094;28;20040;-77
2023/04/19 03:23:36;;;;;;;80.55;74.85;;;;;;;7.96;89.45;98814.72;5002935;28;20029;-77
2023/04/19 03:26:03;;;;;;;80.10;74.43;;;;;;;8.08;88.48;98818.38;5017347;28;20037;-75
2023/04/19 03:28:49;;;;;;;78.53;73.03;;;;;;;7.93;89.47;98814.31;5033005;28;20048;-76
2023/04/19 03:31:31;;;;;;;81.88;76.28;;;;;;;8.08;89.50;98817.56;5033451;28;20088;-75
2023/04/19 03:33:58;;;;;;;78.38;72.95;;;;;;;8.17;88.77;98809.06;5023107;28;20040;-75
2023/04/19 03:36:28;;;;;;;79.38;74.18;;;;;;;8.10;88.63;98800.22;5036825;28;20021;-75
2023/04/19 03:38:54;;;;;;;76.55;71.43;;;;;;;8.24;88.48;98807.16;5052732;28;20056;-75
2023/04/19 03:41:25;;;;;;;78.38;73.05;;;;;;;8.24;88.41;98804.47;5020321;28;20117;-76
2023/04/19 03:44:19;;;;;;;84.13;78.32;;;;;;;8.08;90.07;98796.91;5017243;28;20517;-75
2023/04/19 03:46:47;;;;;;;82.30;76.78;;;;;;;8.19;89.45;98808.84;5016935;28;20379;-76
2023/04/19 03:49:15;;;;;;;81.93;76.53;;;;;;;8.28;89.31;98792.28;5017922;28;20383;-76
2023/04/19 03:51:43;;;;;;;82.97;77.22;;;;;;;8.15;89.23;98786.97;5018798;28;20293;-76
2023/04/19 03:54:09;;;;;;;85.60;79.82;;;;;;;8.16;89.19;98787.81;5032879;28;20084;-74
2023/04/19 03:56:34;;;;;;;85.40;79.78;;;;;;;8.20;89.10;98781.81;5032434;28;20494;-75
2023/04/19 03:59:00;;;;;;;86.78;80.85;;;;;;;8.29;88.79;98783.22;5015924;28;20025;-77
2023/04/19 04:01:26;;;;;;;83.78;78.13;;;;;;;8.27;88.30;98774.56;5005769;28;20547;-76
2023/04/19 04:03:53;;;;;;;86.20;80.07;;;;;;;8.40;87.80;98780.91;5035771;28;20072;-76
2023/04/19 04:06:19;;;;;;;89.55;83.22;;;;;;;8.24;88.22;98785.69;5013041;28;20518;-76
2023/04/19 04:08:45;;;;;;;85.15;79.28;;;;;;;8.26;87.39;98783.63;5005868;28;20033;-76
2023/04/19 04:11:11;;;;;;;89.28;83.22;;;;;;;8.30;87.97;98774.16;5032534;28;20033;-76
2023/04/19 04:13:36;;;;;;;89.45;83.35;;;;;;;8.38;87.37;98775.72;5015961;28;20068;-76
2023/04/19 04:16:09;;;;;;;87.85;81.82;;;;;;;8.39;87.48;98777.38;4998086;28;20045;-76
2023/04/19 04:18:34;;;;;;;83.53;77.55;;;;;;;8.41;87.66;98779.84;5026347;28;20037;-75
2023/04/19 04:21:03;;;;;;;85.20;79.22;;;;;;;8.42;87.29;98776.97;5032116;28;20497;-75
2023/04/19 04:23:32;;;;;;;84.13;78.18;;;;;;;8.53;86.57;98775.44;4997337;28;20085;-75
2023/04/19 04:25:59;;;;;;;83.95;77.82;;;;;;;8.31;87.25;98791.88;5023068;28;20029;-75
2023/04/19 04:28:31;;;;;;;83.95;77.95;;;;;;;8.43;86.83;98780.44;5022733;28;20061;-76
2023/04/19 04:30:57;;;;;;;83.20;77.07;;;;;;;8.38;86.86;98774.94;5035066;28;20441;-75
2023/04/19 04:33:25;;;;;;;88.18;82.07;;;;;;;8.41;87.02;98779.84;5020518;28;20048;-75
2023/04/19 04:35:52;;;;;;;82.68;76.85;;;;;;;8.45;87.12;98783.75;5022349;28;20064;-74
2023/04/19 04:38:20;;;;;;;87.70;81.43;;;;;;;8.24;86.70;98780.31;5009399;28;20032;-76
2023/04/19 04:40:52;;;;;;;84.55;78.55;;;;;;;8.32;86.19;98790.84;5025056;28;20029;-75
2023/04/19 04:43:20;;;;;;;83.90;77.90;;;;;;;8.25;86.89;98781.97;5021910;28;20028;-75
2023/04/19 04:45:45;;;;;;;83.63;77.50;;;;;;;8.30;86.99;98789.41;5032556;28;20028;-76
2023/04/19 04:48:11;;;;;;;82.53;76.55;;;;;;;8.37;86.04;98773.28;5021318;28;20025;-75
2023/04/19 04:50:36;;;;;;;81.63;75.82;;;;;;;8.41;85.72;98782.53;5021257;28;20399;-75
2023/04/19 04:53:02;;;;;;;82.22;76.38;;;;;;;8.33;86.13;98789.78;5041495;28;20084;-75
2023/04/19 04:55:30;;;;;;;80.53;74.72;;;;;;;8.34;86.39;98791.44;5009410;28;20031;-76
2023/04/19 04:57:55;;;;;;;82.60;76.88;;;;;;;8.42;85.98;98776.13;5048042;28;20033;-76
2023/04/19 05:00:36;;;;;;;84.65;78.70;;;;;;;8.45;86.27;98778.41;5002716;28;20025;-76
2023/04/19 05:03:05;;;;;;;79.95;74.18;;;;;;;8.40;85.51;98783.59;5044503;28;20103;-75
2023/04/19 05:05:35;;;;;;;78.88;73.10;;;;;;;8.40;85.94;98794.31;5028514;28;20087;-75
2023/04/19 05:08:01;;;;;;;79.95;74.05;;;;;;;8.40;85.79;98783.59;5012074;28;20503;-76
2023/04/19 05:10:26;;;;;;;79.80;73.93;;;;;;;8.32;85.78;98792.69;4995209;28;20064;-76
2023/04/19 05:12:52;;;;;;;81.95;75.75;;;;;;;8.26;86.66;98788.22;5007957;28;20058;-76
2023/04/19 05:15:18;;;;;;;82.82;76.80;;;;;;;8.31;85.73;98791.88;5022584;28;20036;-77
2023/04/19 05:17:48;;;;;;;84.55;78.18;;;;;;;8.16;85.62;98794.00;5011888;28;20064;-77
2023/04/19 05:20:13;;;;;;;93.13;85.95;;;;;;;8.22;85.51;98786.94;5033629;23;20038;-76
2023/04/19 05:22:40;;;;;;;84.05;78.00;;;;;;;8.13;85.61;98794.44;4982056;28;20076;-73
2023/04/19 05:25:09;;;;;;;82.28;76.05;;;;;;;8.22;85.60;98787.78;5011068;28;20042;-72
2023/04/19 05:27:34;;;;;;;79.45;73.40;;;;;;;8.36;84.61;98793.91;5011257;28;20567;-73
2023/04/19 05:30:02;;;;;;;79.20;73.25;;;;;;;8.16;85.68;98793.19;5014941;28;20033;-74
2023/04/19 05:32:28;;;;;;;80.63;74.25;;;;;;;8.10;85.30;98784.13;5031211;28;20082;-74
2023/04/19 05:34:56;;;;;;;84.80;78.28;;;;;;;8.09;85.37;98793.22;5028218;28;20030;-74
2023/04/19 05:37:23;;;;;;;83.15;76.75;;;;;;;8.26;85.59;98789.00;5047282;28;20383;-74
2023/04/19 05:39:48;;;;;;;80.07;73.65;;;;;;;8.17;84.61;98790.28;5034328;28;20033;-74
2023/04/19 05:42:13;;;;;;;78.78;72.57;;;;;;;7.95;85.66;98786.25;5039990;28;20029;-75
2023/04/19 05:44:39;;;;;;;82.03;75.43;;;;;;;7.85;85.43;98777.84;5041297;28;20037;-74
2023/04/19 05:47:05;;;;;;;77.43;71.53;;;;;;;7.81;85.37;98790.03;5039431;28;20022;-74
2023/04/19 05:49:53;;;;;;;79.57;73.35;;;;;;;7.95;84.84;98780.91;5023858;28;20068;-74
2023/04/19 05:52:26;;;;;;;80.32;74.15;;;;;;;8.06;84.59;98782.91;5007406;28;20516;-74
2023/04/19 05:54:54;;;;;;;81.13;74.97;;;;;;;7.86;84.88;98776.81;5033561;28;20025;-74
2023/04/19 05:57:19;;;;;;;82.40;76.05;;;;;;;7.88;85.46;98782.78;5027170;28;20026;-75
2023/04/19 05:59:45;;;;;;;76.97;70.97;;;;;;;7.97;84.02;98781.50;4996536;28;20097;-74
2023/04/19 06:02:13;;;;;;;77.68;72.05;;;;;;;7.94;84.27;98778.41;5018978;28;20390;-75
2023/04/19 06:04:38;;;;;;;77.28;71.72;;;;;;;7.87;85.04;98783.81;5040427;28;20041;-75
2023/04/19 06:07:04;;;;;;;78.70;72.80;;;;;;;7.86;84.51;98774.13;5006019;28;20021;-75
2023/04/19 06:09:29;;;;;;;76.63;71.18;;;;;;;7.77;84.49;98783.44;5010656;28;20442;-75
2023/04/19 06:11:55;;;;;;;75.05;69.80;;;;;;;7.83;84.20;98777.22;5027075;28;20112;-75
2023/04/19 06:14:22;;;;;;;69.10;64.07;;;;;;;7.70;84.34;98776.47;5007626;28;20484;-75
2023/04/19 06:16:47;;;;;;;67.35;62.63;;;;;;;7.80;83.67;98771.47;5022336;28;20036;-78
2023/04/19 06:19:13;;;;;;;64.88;59.97;;;;;;;7.72;83.95;98774.41;5017125;28;20410;-76
2023/04/19 06:21:38;;;;;;;66.15;61.63;;;;;;;7.70;83.46;98766.56;5026980;28;20111;-75
2023/04/19 06:24:06;;;;;;;64.13;59.53;;;;;;;7.78;84.23;98763.63;5023792;28;20499;-75
2023/04/19 06:26:31;;;;;;;62.72;58.25;;;;;;;7.55;84.44;98768.66;5005931;28;20021;-75
2023/04/19 06:28:56;;;;;;;69.80;64.90;;;;;;;7.73;84.34;98774.16;5000310;28;20045;-74
2023/04/19 06:31:22;;;;;;;70.25;65.50;;;;;;;7.64;83.87;98786.16;5030186;28;20109;-74
2023/04/19 06:33:47;;;;;;;68.45;63.55;;;;;;;7.64;82.78;98783.47;5025229;28;20084;-74
2023/04/19 06:36:13;;;;;;;67.13;62.53;;;;;;;7.63;83.06;98779.97;5038217;28;20021;-75
2023/04/19 06:38:40;;;;;;;62.15;57.75;;;;;;;7.77;82.56;98766.53;5030111;28;20494;-75
2023/04/19 06:41:05;;;;;;;63.75;59.30;;;;;;;7.62;82.95;98770.31;5018553;28;20037;-75
2023/04/19 06:43:30;;;;;;;60.88;56.53;;;;;;;7.52;83.41;98786.00;5023711;28;20041;-76
2023/04/19 06:45:59;;;;;;;61.80;57.53;;;;;;;7.68;82.73;98772.13;5024899;28;20025;-75
2023/04/19 06:48:26;;;;;;;57.28;53.28;;;;;;;7.59;82.87;98775.25;5030152;28;20491;-75
2023/04/19 06:50:52;;;;;;;55.47;51.50;;;;;;;7.55;81.49;98769.50;5030093;28;20028;-74
2023/04/19 06:53:17;;;;;;;50.63;47.25;;;;;;;7.59;81.79;98769.88;5016720;28;20041;-75
2023/04/19 06:55:43;;;;;;;49.65;46.33;;;;;;;7.54;82.15;98777.72;5017752;28;20033;-75
2023/04/19 06:58:09;;;;;;;44.35;41.17;;;;;;;7.54;80.81;98783.09;5023496;28;20526;-75
2023/04/19 07:00:35;;;;;;;39.53;36.92;;;;;;;7.66;80.37;98771.53;5022587;28;20029;-75
2023/04/19 07:03:01;;;;;;;41.58;38.58;;;;;;;7.62;80.67;98774.84;5024190;28;20040;-76
2023/04/19 07:05:26;;;;;;;37.47;34.80;;;;;;;7.79;81.01;98759.94;5005824;28;20029;-75
2023/04/19 07:07:51;;;;;;;35.17;32.67;;;;;;;7.66;80.15;98765.31;5024202;28;20034;-76
2023/04/19 07:10:17;;;;;;;38.35;35.65;;;;;;;7.65;80.40;98774.41;5022241;28;20032;-75
2023/04/19 07:12:42;;;;;;;35.17;32.85;;;;;;;7.66;79.92;98784.94;5031843;28;20382;-75
2023/04/19 07:15:08;;;;;;;38.03;35.42;;;;;;;7.52;80.08;98769.09;5034131;28;20112;-76
2023/04/19 07:17:35;;;;;;;32.67;30.25;;;;;;;7.38;79.70;98768.31;5011518;28;20044;-76
2023/04/19 07:20:01;;;;;;;34.72;32.15;;;;;;;7.36;79.95;98769.53;4997196;28;20064;-74
2023/04/19 07:22:26;;;;;;;34.72;32.08;;;;;;;7.60;79.59;98756.28;5005192;28;20033;-76
2023/04/19 07:24:53;;;;;;;34.75;31.70;;;;;;;7.46;79.76;98775.31;5025545;28;20026;-76
2023/04/19 07:27:18;;;;;;;31.52;29.23;;;;;;;7.46;79.09;98769.94;5014194;28;20113;-76
2023/04/19 07:29:44;;;;;;;31.73;29.50;;;;;;;7.52;79.58;98769.09;5013401;28;20041;-76
2023/04/19 07:32:09;;;;;;;35.78;33.10;;;;;;;7.76;78.67;98765.72;4997203;28;20387;-76
2023/04/19 07:34:36;;;;;;;34.63;32.03;;;;;;;7.85;78.92;98767.13;5014488;28;20022;-76
2023/04/19 07:37:02;;;;;;;32.28;29.55;;;;;;;7.84;77.89;98757.41;5019100;28;20037;-75
2023/04/19 07:39:29;;;;;;;30.38;27.90;;;;;;;7.54;77.99;98750.94;5034378;28;20438;-76
2023/04/19 07:41:55;;;;;;;30.02;27.58;;;;;;;7.97;77.14;98754.69;5019811;28;20127;-75
2023/04/19 07:44:20;;;;;;;34.15;31.25;;;;;;;7.62;79.10;98758.75;5021938;28;20109;-75
2023/04/19 07:46:45;;;;;;;35.55;32.65;;;;;;;8.00;78.38;98762.31;5032987;28;20558;-76
2023/04/19 07:49:11;;;;;;;34.67;31.98;;;;;;;7.74;78.25;98751.69;5021527;28;20026;-76
2023/04/19 07:51:36;;;;;;;37.30;34.45;;;;;;;8.18;78.28;98738.28;5027495;28;20440;-75
2023/04/19 07:54:02;;;;;;;35.22;32.42;;;;;;;8.35;77.41;98744.78;5041309;28;20028;-76
2023/04/19 07:56:27;;;;;;;33.10;30.30;;;;;;;8.31;78.24;98738.22;5044029;28;20038;-76
2023/04/19 07:58:53;;;;;;;31.75;29.33;;;;;;;8.13;76.90;98751.50;5013213;28;20057;-76
2023/04/19 08:01:18;;;;;;;30.63;28.15;;;;;;;8.13;77.31;98740.78;5029367;28;20472;-76
2023/04/19 08:03:43;;;;;;;28.17;25.88;;;;;;;8.20;77.28;98740.72;5029043;28;20057;-76
2023/04/19 08:06:09;;;;;;;27.92;25.63;;;;;;;8.19;76.85;98745.25;5013075;28;20109;-76
2023/04/19 08:08:35;;;;;;;22.92;20.65;;;;;;;7.97;76.13;98745.81;5014123;28;20101;-76
2023/04/19 08:11:01;;;;;;;26.15;23.77;;;;;;;7.93;75.77;98740.06;5013831;28;20088;-76
2023/04/19 08:13:27;;;;;;;24.30;22.08;;;;;;;8.03;76.04;98751.13;5012784;28;20022;-75
2023/04/19 08:15:52;;;;;;;23.70;21.58;;;;;;;8.18;76.95;98765.09;5012661;28;20030;-74
2023/04/19 08:18:17;;;;;;;24.15;22.05;;;;;;;8.10;75.96;98768.03;5012563;28;20033;-75
2023/04/19 08:20:45;;;;;;;23.70;21.70;;;;;;;7.96;76.83;98771.81;5012289;28;20030;-75
2023/04/19 08:23:11;;;;;;;22.48;20.58;;;;;;;7.95;75.29;98763.97;5012867;28;20022;-75
2023/04/19 08:25:37;;;;;;;19.52;17.73;;;;;;;7.87;75.52;98782.97;5011705;28;20038;-74
2023/04/19 08:28:02;;;;;;;20.35;18.55;;;;;;;7.63;76.93;98776.50;5012314;28;20026;-76
2023/04/19 08:30:28;;;;;;;25.10;23.00;;;;;;;7.64;76.35;98778.13;5012162;28;20034;-76
2023/04/19 08:32:53;;;;;;;24.15;21.83;;;;;;;7.68;76.60;98768.63;5012236;28;20030;-75
2023/04/19 08:35:19;;;;;;;24.98;22.77;;;;;;;7.66;76.79;98781.41;5013269;28;20034;-74
2023/04/19 08:37:46;;;;;;;24.35;22.15;;;;;;;7.76;76.35;98776.44;5030786;28;20030;-74
2023/04/19 08:40:13;;;;;;;28.58;26.00;;;;;;;8.02;76.52;98776.31;5031986;28;20038;-75
2023/04/19 08:42:39;;;;;;;25.27;22.88;;;;;;;7.72;75.76;98775.22;5026016;28;20043;-75
2023/04/19 08:45:05;;;;;;;31.30;28.60;;;;;;;7.96;76.64;98771.00;5032251;28;20539;-75
2023/04/19 08:47:35;;;;;;;26.98;24.33;;;;;;;7.94;75.43;98773.88;5015449;28;20029;-75
2023/04/19 08:50:04;;;;;;;27.60;24.77;;;;;;;8.20;74.32;98767.56;5031968;28;20087;-75
2023/04/19 08:52:32;;;;;;;27.38;24.35;;;;;;;8.73;73.25;98768.03;5019208;28;20160;-74
2023/04/19 08:55:00;;;;;;;28.45;22.88;;;;;;;8.54;73.25;98752.94;5031553;28;20514;-75
2023/04/19 08:57:26;;;;;;;25.65;21.75;;;;;;;8.17;73.57;98758.06;5031886;28;20037;-74
2023/04/19 08:59:54;;;;;;;25.88;22.50;;;;;;;8.05;73.08;98759.78;5025396;28;20048;-73
2023/04/19 09:02:20;;;;;;;25.88;23.23;;;;;;;8.30;73.59;98758.06;5026796;28;20017;-74
2023/04/19 09:04:46;;;;;;;25.90;21.67;;;;;;;8.17;73.44;98747.34;5028133;28;20050;-74
2023/04/19 09:07:24;;;;;;;21.60;19.25;;;;;;;8.17;73.37;98763.44;5009208;28;20017;-74
2023/04/19 09:10:07;;;;;;;22.70;18.42;;;;;;;8.05;72.52;98748.25;5031717;28;20069;-74
2023/04/19 09:12:33;;;;;;;25.75;19.05;;;;;;;8.55;72.11;98741.13;5013988;28;20080;-75
2023/04/19 09:15:01;;;;;;;23.67;19.00;;;;;;;8.55;71.33;98750.03;5027685;28;20028;-75
2023/04/19 09:17:27;;;;;;;24.65;17.73;;;;;;;8.53;71.00;98751.28;5045633;28;20041;-74
2023/04/19 09:19:52;;;;;;;20.42;17.55;;;;;;;8.24;72.05;98749.97;5003555;28;20037;-74
2023/04/19 09:22:17;;;;;;;23.80;17.73;;;;;;;8.61;70.52;98737.59;5024705;28;20046;-74
2023/04/19 09:24:43;;;;;;;25.25;18.63;;;;;;;8.55;70.98;98739.28;5018525;28;20029;-74
2023/04/19 09:27:10;;;;;;;25.75;17.33;;;;;;;9.37;68.00;98736.25;5025046;28;20038;-74
2023/04/19 09:29:37;;;;;;;20.77;15.32;;;;;;;9.43;67.23;98731.84;5012436;28;20041;-75
2023/04/19 09:32:02;;;;;;;18.55;13.90;;;;;;;9.41;66.60;98732.06;5024533;28;20048;-75
2023/04/19 09:34:29;;;;;;;18.75;14.35;;;;;;;9.60;67.31;98739.09;5021193;28;20021;-74
2023/04/19 09:36:55;;;;;;;17.83;13.85;;;;;;;8.74;66.09;98732.94;5026584;28;20041;-74
2023/04/19 09:39:30;;;;;;;14.88;11.75;;;;;;;8.87;64.39;98727.44;5005473;28;20021;-74
2023/04/19 09:41:57;;;;;;;15.50;11.82;;;;;;;9.45;63.78;98714.44;5017423;28;20044;-74
2023/04/19 09:44:22;;;;;;;13.35;10.15;;;;;;;9.34;61.39;98717.06;5012897;28;20041;-74
2023/04/19 09:46:50;;;;;;;13.70;11.40;;;;;;;9.68;61.43;98714.56;5041826;28;20029;-75
2023/04/19 09:49:22;;;;;;;15.55;10.40;;;;;;;9.38;61.28;98708.31;5010949;28;20111;-75
2023/04/19 09:51:55;;;;;;;13.77;10.23;;;;;;;9.79;60.93;98712.19;5016012;28;20522;-75
2023/04/19 09:54:27;;;;;;;13.63;8.30;;;;;;;9.49;59.79;98710.28;5024591;28;20040;-74
2023/04/19 09:56:53;;;;;;;8.98;7.38;;;;;;;9.49;60.15;98702.22;5014400;28;20033;-74
2023/04/19 09:59:18;;;;;;;10.43;6.70;;;;;;;9.89;57.84;98689.09;5030448;28;20477;-75
2023/04/19 10:01:44;;;;;;;8.43;6.82;;;;;;;9.56;56.66;98692.19;5030337;28;20095;-75
2023/04/19 10:04:11;;;;;;;7.82;6.70;;;;;;;9.80;57.83;98686.94;5028660;28;20110;-74
2023/04/19 10:06:38;;;;;;;8.75;6.40;;;;;;;9.38;56.60;98694.88;5030652;28;20038;-73
2023/04/19 10:09:05;;;;;;;7.72;6.30;;;;;;;9.75;56.57;98685.72;5047145;28;20442;-74
2023/04/19 10:11:37;;;;;;;6.63;5.78;;;;;;;9.66;55.59;98679.03;5005766;28;20087;-74
2023/04/19 10:14:04;;;;;;;8.93;6.30;;;;;;;9.75;55.57;98666.91;4991374;28;20166;-74
2023/04/19 10:16:30;;;;;;;6.47;5.35;;;;;;;9.92;55.13;98667.09;5003453;28;20117;-74
2023/04/19 10:18:56;;;;;;;6.35;5.75;;;;;;;10.32;56.52;98661.97;5018323;28;20116;-73
2023/04/19 10:21:21;;;;;;;6.78;5.68;;;;;;;10.92;54.66;98658.03;5030292;28;20087;-74
2023/04/19 10:23:47;;;;;;;6.68;4.88;;;;;;;10.57;54.24;98659.88;5016819;28;20046;-74
2023/04/19 10:26:12;;;;;;;6.55;5.35;;;;;;;11.02;54.43;98658.25;5022499;28;20053;-74
2023/04/19 10:28:37;;;;;;;5.95;4.88;;;;;;;11.21;53.77;98655.41;5023772;28;20136;-74
2023/04/19 10:31:04;;;;;;;5.38;4.45;;;;;;;10.37;52.52;98651.31;5030216;28;20040;-74
2023/04/19 10:33:35;;;;;;;6.03;3.97;;;;;;;11.09;53.23;98637.41;5044586;28;20037;-74
2023/04/19 10:36:01;;;;;;;4.78;4.05;;;;;;;11.13;52.83;98645.03;5020686;28;20042;-74
2023/04/19 10:38:44;;;;;;;5.68;4.30;;;;;;;11.16;51.40;98647.22;5018760;28;20025;-73
2023/04/19 10:41:15;;;;;;;4.35;3.88;;;;;;;10.82;52.26;98652.44;5030631;28;20048;-74
2023/04/19 10:43:59;;;;;;;4.60;3.38;;;;;;;10.81;51.40;98642.69;5010845;28;20479;-74
2023/04/19 10:46:24;;;;;;;5.32;3.83;;;;;;;11.26;53.28;98636.66;5045399;28;20034;-74
2023/04/19 10:48:56;;;;;;;5.20;3.67;;;;;;;10.77;51.23;98633.44;5033508;28;20072;-74
2023/04/19 10:51:26;;;;;;;3.90;2.85;;;;;;;11.10;51.70;98622.06;5033869;28;20052;-74
2023/04/19 10:53:55;;;;;;;5.32;3.03;;;;;;;10.96;51.21;98632.28;5033758;28;20068;-74
2023/04/19 10:56:22;;;;;;;3.47;3.00;;;;;;;10.99;50.86;98630.97;5017747;28;20474;-74
2023/04/19 10:59:12;;;;;;;3.78;3.30;;;;;;;11.22;50.25;98620.16;5013827;28;20096;-74
2023/04/19 11:01:42;;;;;;;4.95;2.92;;;;;;;11.09;50.05;98621.22;5023019;28;20437;-75
2023/04/19 11:04:09;;;;;;;3.90;3.10;;;;;;;11.13;51.32;98619.69;5004435;28;20038;-75
2023/04/19 11:06:36;;;;;;;4.35;3.08;;;;;;;10.98;49.55;98610.47;5025401;28;20028;-76
2023/04/19 11:09:04;;;;;;;4.05;3.00;;;;;;;11.29;51.08;98603.84;5017485;28;20440;-76
2023/04/19 11:11:33;;;;;;;2.97;2.78;;;;;;;11.16;48.89;98614.88;5024840;28;20030;-76
2023/04/19 11:14:01;;;;;;;4.80;2.42;;;;;;;11.06;45.79;98610.91;5013536;28;20025;-76
2023/04/19 11:16:26;;;;;;;5.00;2.15;;;;;;;11.20;42.84;98602.56;5023860;28;20523;-75
2023/04/19 11:18:52;;;;;;;3.80;2.38;;;;;;;11.37;43.72;98596.19;5030318;28;20117;-76
2023/04/19 11:21:17;;;;;;;2.80;2.50;;;;;;;11.62;44.80;98603.97;5060382;23;20041;-76
2023/04/19 11:23:42;;;;;;;4.45;2.30;;;;;;;11.67;41.06;98601.34;5030858;28;20045;-76
2023/04/19 11:26:11;;;;;;;3.38;2.72;;;;;;;11.72;41.32;98591.50;5033249;28;20106;-76